Time;durP1;ratioP1;P1;durP2;ratioP2;P2;SDS_P1;SDS_P2;PMS_P1;PMS_P2;Temp;Humidity;BMP_temperature;BMP_pressure;BME280_temperature;BME280_humidity;BME280_pressure;Samples;Min_cycle;Max_cycle;Signal;HPM_P1;HPM_P2
2021/09/20 00:00:08;;;;;;;5.75;3.95;;;15.70;99.90;;;;;;6203829;23;20174;-78
2021/09/20 00:02:37;;;;;;;6.00;4.65;;;15.70;99.90;;;;;;6204196;23;20166;-78
2021/09/20 00:05:04;;;;;;;6.23;4.20;;;15.60;99.90;;;;;;6204562;23;20178;-78
2021/09/20 00:07:31;;;;;;;3.97;3.58;;;15.60;99.90;;;;;;6203969;23;20166;-80
2021/09/20 00:09:58;;;;;;;5.00;4.20;;;15.50;99.90;;;;;;6205477;23;20174;-78
2021/09/20 00:12:25;;;;;;;5.57;3.78;;;15.60;99.90;;;;;;6204358;23;20198;-76
2021/09/20 00:14:51;;;;;;;4.97;3.90;;;15.50;99.90;;;;;;6204358;23;20166;-77
2021/09/20 00:17:18;;;;;;;5.57;4.20;;;15.50;99.90;;;;;;6204585;23;20385;-78
2021/09/20 00:19:46;;;;;;;7.37;4.03;;;15.50;99.90;;;;;;6205383;23;20200;-79
2021/09/20 00:22:13;;;;;;;8.80;4.50;;;15.50;99.90;;;;;;6204270;23;20170;-79
2021/09/20 00:24:40;;;;;;;5.85;3.70;;;15.50;99.90;;;;;;6204328;23;20178;-78
2021/09/20 00:27:08;;;;;;;4.85;4.10;;;15.50;99.90;;;;;;6204847;23;20682;-79
2021/09/20 00:29:35;;;;;;;4.63;3.60;;;15.50;99.90;;;;;;6203590;23;20602;-77
2021/09/20 00:32:02;;;;;;;6.17;3.87;;;15.50;99.90;;;;;;6204370;23;20907;-78
2021/09/20 00:34:29;;;;;;;5.00;3.83;;;15.50;99.90;;;;;;6204787;23;20202;-77
2021/09/20 00:36:57;;;;;;;5.63;4.30;;;15.40;99.90;;;;;;6204432;23;20174;-77
2021/09/20 00:39:24;;;;;;;3.70;3.40;;;15.50;99.90;;;;;;6204690;23;20185;-77
2021/09/20 00:41:50;;;;;;;7.23;4.30;;;15.50;99.90;;;;;;6205028;23;20209;-76
2021/09/20 00:44:17;;;;;;;4.97;4.10;;;15.50;99.90;;;;;;6203810;23;20217;-79
2021/09/20 00:46:44;;;;;;;5.80;3.83;;;15.40;99.90;;;;;;6205682;23;20185;-79
2021/09/20 00:49:11;;;;;;;5.43;4.20;;;15.40;99.90;;;;;;6204258;23;20170;-78
2021/09/20 00:51:38;;;;;;;5.65;4.38;;;15.40;99.90;;;;;;6203437;23;20202;-79
2021/09/20 00:54:06;;;;;;;7.95;4.68;;;15.40;99.90;;;;;;6204330;23;20185;-77
2021/09/20 00:56:33;;;;;;;7.00;4.47;;;15.40;99.90;;;;;;6203093;23;20181;-77
2021/09/20 00:59:00;;;;;;;5.23;4.53;;;15.30;99.90;;;;;;6204870;23;20174;-78
2021/09/20 01:01:28;;;;;;;11.70;4.60;;;15.30;99.90;;;;;;6203057;23;20706;-78
2021/09/20 01:03:55;;;;;;;7.55;4.32;;;15.30;99.90;;;;;;6202846;23;20177;-79
2021/09/20 01:06:21;;;;;;;4.63;4.20;;;15.30;99.90;;;;;;6203628;23;20178;-77
2021/09/20 01:08:48;;;;;;;6.47;4.63;;;15.30;99.90;;;;;;6204079;22;20205;-78
2021/09/20 01:11:17;;;;;;;4.60;4.20;;;15.30;99.90;;;;;;6202876;23;20198;-80
2021/09/20 01:13:44;;;;;;;5.37;4.63;;;15.30;99.90;;;;;;6203580;23;20170;-80
2021/09/20 01:16:11;;;;;;;5.43;4.73;;;15.30;99.90;;;;;;6203305;23;20178;-79
2021/09/20 01:18:37;;;;;;;6.30;4.80;;;15.20;99.90;;;;;;6204032;23;20217;-79
2021/09/20 01:21:04;;;;;;;4.65;3.65;;;15.20;99.90;;;;;;6203947;23;20209;-78
2021/09/20 01:23:33;;;;;;;7.50;4.83;;;15.20;99.90;;;;;;6204608;23;20182;-76
2021/09/20 01:25:59;;;;;;;7.43;4.73;;;15.10;99.90;;;;;;6203989;23;20187;-77
2021/09/20 01:28:26;;;;;;;5.90;4.47;;;15.10;99.90;;;;;;6203852;23;20178;-77
2021/09/20 01:30:53;;;;;;;5.57;4.47;;;15.10;99.90;;;;;;6203482;23;20282;-77
2021/09/20 01:33:20;;;;;;;6.13;4.63;;;15.10;99.90;;;;;;6203545;23;20528;-79
2021/09/20 01:35:47;;;;;;;5.47;4.60;;;15.10;99.90;;;;;;6203816;23;20224;-80
2021/09/20 01:38:13;;;;;;;5.07;4.53;;;15.10;99.90;;;;;;6203612;23;20584;-77
2021/09/20 01:40:42;;;;;;;9.07;4.83;;;15.10;99.90;;;;;;6203196;23;20178;-80
2021/09/20 01:43:09;;;;;;;7.40;4.70;;;15.10;99.90;;;;;;6203828;23;20181;-78
2021/09/20 01:45:36;;;;;;;5.33;4.60;;;15.10;99.90;;;;;;6203775;23;20174;-76
2021/09/20 01:48:03;;;;;;;5.27;4.77;;;15.00;99.90;;;;;;6203222;23;20339;-77
2021/09/20 01:50:30;;;;;;;6.33;5.30;;;15.10;99.90;;;;;;6203029;23;20189;-79
2021/09/20 01:52:57;;;;;;;8.97;5.27;;;15.00;99.90;;;;;;6203075;23;20197;-75
2021/09/20 01:55:23;;;;;;;6.90;5.23;;;15.00;99.90;;;;;;6202829;23;20180;-80
2021/09/20 01:57:52;;;;;;;7.00;5.33;;;15.00;99.90;;;;;;6204134;23;20184;-81
2021/09/20 02:00:20;;;;;;;5.83;5.23;;;15.00;99.90;;;;;;6201904;23;20181;-80
2021/09/20 02:02:47;;;;;;;7.37;5.60;;;15.00;99.90;;;;;;6203403;23;20266;-80
2021/09/20 02:05:15;;;;;;;5.93;5.33;;;14.90;99.90;;;;;;6202358;23;20673;-81
2021/09/20 02:07:43;;;;;;;9.00;5.77;;;14.90;99.90;;;;;;6202594;23;20553;-80
2021/09/20 02:10:14;;;;;;;7.03;5.30;;;14.90;99.90;;;;;;6203826;23;20163;-79
2021/09/20 02:12:40;;;;;;;5.77;5.07;;;14.80;99.90;;;;;;6203836;23;20198;-78
2021/09/20 02:15:10;;;;;;;6.60;5.23;;;14.80;99.90;;;;;;6202656;23;20172;-81
2021/09/20 02:17:37;;;;;;;5.40;4.50;;;14.80;99.90;;;;;;6202533;23;20178;-79
2021/09/20 02:20:07;;;;;;;6.13;5.53;;;14.80;99.90;;;;;;6203573;23;20201;-82
2021/09/20 02:22:34;;;;;;;6.30;5.00;;;14.80;99.90;;;;;;6202450;23;20411;-81
2021/09/20 02:25:02;;;;;;;6.53;4.70;;;14.70;99.90;;;;;;6203874;23;20174;-80
2021/09/20 02:27:28;;;;;;;7.67;5.10;;;14.70;99.90;;;;;;6203016;23;20248;-80
2021/09/20 02:29:55;;;;;;;7.03;4.97;;;14.70;99.90;;;;;;6202332;23;20178;-81
2021/09/20 02:32:23;;;;;;;5.60;5.03;;;14.70;99.90;;;;;;6203284;23;20198;-82
2021/09/20 02:34:50;;;;;;;5.97;5.10;;;14.70;99.90;;;;;;6204361;23;20174;-81
2021/09/20 02:37:17;;;;;;;5.57;4.97;;;14.70;99.90;;;;;;6203365;23;20174;-80
2021/09/20 02:39:44;;;;;;;7.90;4.90;;;14.70;99.90;;;;;;6204790;23;20178;-78
2021/09/20 02:42:11;;;;;;;9.07;5.47;;;14.70;99.90;;;;;;6204039;23;20170;-78
2021/09/20 02:44:37;;;;;;;7.97;5.17;;;14.70;99.90;;;;;;6204364;23;20181;-80
2021/09/20 02:47:04;;;;;;;7.60;5.07;;;14.60;99.90;;;;;;6203913;23;20170;-76
2021/09/20 02:49:32;;;;;;;8.03;5.17;;;14.60;99.90;;;;;;6203978;23;20185;-78
2021/09/20 02:51:59;;;;;;;6.40;4.97;;;14.60;99.90;;;;;;6204791;23;20227;-77
2021/09/20 02:54:26;;;;;;;5.83;4.90;;;14.60;99.90;;;;;;6203378;23;20197;-79
2021/09/20 02:56:53;;;;;;;7.17;5.67;;;14.60;99.90;;;;;;6203270;23;20833;-81
2021/09/20 02:59:19;;;;;;;7.23;5.13;;;14.60;99.90;;;;;;6203920;23;20178;-81
2021/09/20 03:01:46;;;;;;;10.73;5.27;;;14.50;99.90;;;;;;6204280;23;20173;-83
2021/09/20 03:04:13;;;;;;;7.20;5.10;;;14.60;99.90;;;;;;6203398;23;20174;-82
2021/09/20 03:06:41;;;;;;;7.03;5.03;;;14.50;99.90;;;;;;6203818;23;20201;-79
2021/09/20 03:09:08;;;;;;;7.47;5.47;;;14.40;99.90;;;;;;6204441;23;20194;-78
2021/09/20 03:11:34;;;;;;;8.23;4.87;;;14.40;99.90;;;;;;6203909;23;20197;-77
2021/09/20 03:14:01;;;;;;;6.50;5.63;;;14.40;99.90;;;;;;6204912;23;20213;-78
2021/09/20 03:16:28;;;;;;;7.27;5.60;;;14.40;99.90;;;;;;6204381;23;20185;-77
2021/09/20 03:18:55;;;;;;;5.90;5.30;;;14.30;99.90;;;;;;6204707;23;20181;-79
2021/09/20 03:21:24;;;;;;;5.37;4.87;;;14.30;99.90;;;;;;6204432;23;20220;-80
2021/09/20 03:23:52;;;;;;;7.20;4.87;;;14.30;99.90;;;;;;6204164;23;20170;-79
2021/09/20 03:26:19;;;;;;;7.23;5.47;;;14.30;99.90;;;;;;6203056;23;20170;-81
2021/09/20 03:28:45;;;;;;;5.87;5.27;;;14.40;99.90;;;;;;6204418;23;20186;-78
2021/09/20 03:31:12;;;;;;;6.20;5.43;;;14.40;99.90;;;;;;6203875;23;20174;-81
2021/09/20 03:33:39;;;;;;;7.00;5.63;;;14.40;99.90;;;;;;6203604;23;20201;-81
2021/09/20 03:36:06;;;;;;;5.50;4.97;;;14.40;99.90;;;;;;6204478;23;20173;-79
2021/09/20 03:38:32;;;;;;;5.77;4.70;;;14.40;99.90;;;;;;6203629;23;20257;-79
2021/09/20 03:41:01;;;;;;;6.60;5.07;;;14.40;99.90;;;;;;6204773;23;20180;-77
2021/09/20 03:43:27;;;;;;;7.50;5.47;;;14.30;99.90;;;;;;6203705;23;20178;-79
2021/09/20 03:45:54;;;;;;;6.77;5.60;;;14.40;99.90;;;;;;6205253;23;20178;-79
2021/09/20 03:48:21;;;;;;;6.07;5.33;;;14.30;99.90;;;;;;6204889;23;20181;-79
2021/09/20 03:50:48;;;;;;;6.17;4.93;;;14.20;99.90;;;;;;6205399;23;20174;-82
2021/09/20 03:53:15;;;;;;;8.53;5.20;;;14.30;99.90;;;;;;6204342;23;20219;-82
2021/09/20 03:55:41;;;;;;;6.10;5.50;;;14.20;99.90;;;;;;6204408;23;20208;-80
2021/09/20 03:58:09;;;;;;;5.83;4.87;;;14.10;99.90;;;;;;6204731;23;20582;-80
2021/09/20 04:00:36;;;;;;;5.43;4.90;;;14.10;99.90;;;;;;6205636;23;20170;-79
2021/09/20 04:03:03;;;;;;;5.67;5.03;;;14.10;99.90;;;;;;6207458;23;20170;-78
2021/09/20 04:05:30;;;;;;;5.37;4.83;;;14.10;99.90;;;;;;6207176;23;20234;-78
2021/09/20 04:07:56;;;;;;;5.60;4.57;;;14.10;99.90;;;;;;6205273;23;20201;-80
2021/09/20 04:10:24;;;;;;;5.50;4.47;;;14.10;99.90;;;;;;6206587;23;20756;-80
2021/09/20 04:12:50;;;;;;;7.30;5.13;;;14.10;99.90;;;;;;6207298;23;20197;-82
2021/09/20 04:15:18;;;;;;;7.33;4.70;;;14.10;99.90;;;;;;6205184;23;20476;-83
2021/09/20 04:17:46;;;;;;;7.30;5.27;;;14.20;99.90;;;;;;6206669;23;20197;-85
2021/09/20 04:20:14;;;;;;;5.70;5.13;;;14.10;99.90;;;;;;6206421;23;20458;-83
2021/09/20 04:22:41;;;;;;;6.13;5.03;;;14.10;99.90;;;;;;6205789;23;20171;-80
2021/09/20 04:25:09;;;;;;;7.47;4.87;;;14.20;99.90;;;;;;6205597;23;20200;-79
2021/09/20 04:27:36;;;;;;;7.17;5.60;;;14.20;99.90;;;;;;6206542;23;20185;-78
2021/09/20 04:30:04;;;;;;;7.77;5.43;;;14.10;99.90;;;;;;6206626;23;20575;-78
2021/09/20 04:32:32;;;;;;;8.30;5.80;;;14.10;99.90;;;;;;6205978;23;20365;-80
2021/09/20 04:34:59;;;;;;;7.73;5.90;;;14.00;99.90;;;;;;6205576;23;20177;-81
2021/09/20 04:37:26;;;;;;;6.63;5.40;;;14.00;99.90;;;;;;6206595;23;20174;-78
2021/09/20 04:39:53;;;;;;;6.30;5.70;;;14.00;99.90;;;;;;6206391;23;20174;-77
2021/09/20 04:42:19;;;;;;;6.57;5.60;;;14.00;99.90;;;;;;6204873;23;20169;-81
2021/09/20 04:44:47;;;;;;;7.57;5.70;;;14.00;99.90;;;;;;6205783;23;20181;-81
2021/09/20 04:47:14;;;;;;;6.53;5.67;;;14.00;99.90;;;;;;6206497;23;20174;-82
2021/09/20 04:49:43;;;;;;;7.63;6.10;;;14.00;99.90;;;;;;6205376;23;20178;-80
2021/09/20 04:52:10;;;;;;;8.27;5.53;;;14.00;99.90;;;;;;6206235;23;20240;-81
2021/09/20 04:54:36;;;;;;;8.17;5.90;;;14.00;99.90;;;;;;6206663;23;20170;-78
2021/09/20 04:57:04;;;;;;;8.27;5.90;;;13.90;99.90;;;;;;6206254;23;20170;-80
2021/09/20 04:59:31;;;;;;;7.33;6.17;;;13.90;99.90;;;;;;6206917;23;20181;-81
2021/09/20 05:01:57;;;;;;;6.77;5.90;;;13.90;99.90;;;;;;6207162;23;20178;-82
2021/09/20 05:04:24;;;;;;;9.90;6.67;;;13.90;99.90;;;;;;6206514;23;20174;-81
2021/09/20 05:06:52;;;;;;;11.43;6.60;;;13.90;99.90;;;;;;6207319;23;20171;-81
2021/09/20 05:09:19;;;;;;;6.27;5.53;;;13.90;99.90;;;;;;6205665;23;20212;-78
2021/09/20 05:11:46;;;;;;;6.47;5.30;;;13.80;99.90;;;;;;6206398;23;20189;-81
2021/09/20 05:14:13;;;;;;;6.83;5.93;;;13.80;99.90;;;;;;6206473;23;20198;-82
2021/09/20 05:16:40;;;;;;;7.80;5.97;;;13.70;99.90;;;;;;6207262;23;20174;-80
2021/09/20 05:19:06;;;;;;;7.37;6.53;;;13.70;99.90;;;;;;6206457;23;20457;-79
2021/09/20 05:21:33;;;;;;;6.47;5.57;;;13.70;99.90;;;;;;6206619;23;20174;-83
2021/09/20 05:24:01;;;;;;;7.30;5.70;;;13.60;99.90;;;;;;6206219;23;20824;-80
2021/09/20 05:26:28;;;;;;;7.37;6.43;;;13.60;99.90;;;;;;6206778;23;20211;-81
2021/09/20 05:28:55;;;;;;;6.90;5.83;;;13.50;99.90;;;;;;6207158;23;20197;-80
2021/09/20 05:31:22;;;;;;;6.73;6.03;;;13.50;99.90;;;;;;6203684;23;20428;-79
2021/09/20 05:33:52;;;;;;;8.13;6.37;;;13.40;99.90;;;;;;6206623;23;20700;-81
2021/09/20 05:36:18;;;;;;;8.80;6.63;;;13.40;99.90;;;;;;6206825;23;20162;-81
2021/09/20 05:38:45;;;;;;;6.23;5.43;;;13.40;99.90;;;;;;6206141;23;20178;-80
2021/09/20 05:41:13;;;;;;;7.23;5.90;;;13.30;99.90;;;;;;6206438;23;20170;-81
2021/09/20 05:43:40;;;;;;;8.70;6.83;;;13.30;99.90;;;;;;6206638;23;20182;-80
2021/09/20 05:46:07;;;;;;;8.00;6.80;;;13.30;99.90;;;;;;6205896;23;20185;-81
2021/09/20 05:48:34;;;;;;;9.27;6.90;;;13.30;99.90;;;;;;6206577;23;20209;-81
2021/09/20 05:51:01;;;;;;;7.37;6.20;;;13.30;99.90;;;;;;6207056;23;20173;-81
2021/09/20 05:53:28;;;;;;;7.60;6.37;;;13.30;99.90;;;;;;6205932;23;20208;-81
2021/09/20 05:55:55;;;;;;;8.07;6.83;;;13.20;99.90;;;;;;6205579;23;20174;-81
2021/09/20 05:58:23;;;;;;;12.80;7.80;;;13.20;99.90;;;;;;6206459;23;20174;-82
2021/09/20 06:00:50;;;;;;;8.80;7.13;;;13.20;99.90;;;;;;6205766;23;20181;-81
2021/09/20 06:03:17;;;;;;;10.50;7.50;;;13.20;99.90;;;;;;6206748;23;20173;-82
2021/09/20 06:05:44;;;;;;;9.80;7.77;;;13.20;99.90;;;;;;6206178;23;20258;-80
2021/09/20 06:08:11;;;;;;;7.00;6.30;;;13.20;99.90;;;;;;6205780;23;20644;-81
2021/09/20 06:10:39;;;;;;;9.13;7.23;;;13.20;99.90;;;;;;6205616;23;20242;-81
2021/09/20 06:13:07;;;;;;;8.90;7.17;;;13.20;99.90;;;;;;6205436;23;20653;-82
2021/09/20 06:15:36;;;;;;;8.70;7.07;;;13.20;99.90;;;;;;6206004;23;20228;-82
2021/09/20 06:18:05;;;;;;;8.13;6.80;;;13.20;99.90;;;;;;6205627;23;20185;-80
2021/09/20 06:20:32;;;;;;;8.83;6.97;;;13.20;99.90;;;;;;6204753;23;20190;-80
2021/09/20 06:22:59;;;;;;;10.03;7.23;;;13.20;99.90;;;;;;6205986;23;20186;-80
2021/09/20 06:25:26;;;;;;;7.70;6.90;;;13.20;99.90;;;;;;6205640;23;20184;-81
2021/09/20 06:27:54;;;;;;;9.97;7.53;;;13.20;99.90;;;;;;6206258;23;20173;-81
2021/09/20 06:30:21;;;;;;;8.40;7.43;;;13.20;99.90;;;;;;6205559;23;20247;-82
2021/09/20 06:32:49;;;;;;;11.00;8.00;;;13.20;99.90;;;;;;6205935;23;20240;-82
2021/09/20 06:35:16;;;;;;;8.20;6.87;;;13.20;99.90;;;;;;6205209;23;20185;-82
2021/09/20 06:37:43;;;;;;;9.00;7.17;;;13.20;99.90;;;;;;6205718;23;20185;-80
2021/09/20 06:40:12;;;;;;;10.40;7.90;;;13.20;99.90;;;;;;6205162;23;20662;-83
2021/09/20 06:42:40;;;;;;;8.80;7.30;;;13.20;99.90;;;;;;6205659;23;20169;-83
2021/09/20 06:45:08;;;;;;;9.03;7.13;;;13.20;99.90;;;;;;6203686;23;20166;-83
2021/09/20 06:47:35;;;;;;;8.30;7.00;;;13.20;99.90;;;;;;6205287;23;20760;-83
2021/09/20 06:50:03;;;;;;;11.70;7.90;;;13.30;99.90;;;;;;6204959;23;20543;-80
2021/09/20 06:52:30;;;;;;;10.23;7.57;;;13.30;99.90;;;;;;6205116;23;20178;-79
2021/09/20 06:54:57;;;;;;;8.30;7.23;;;13.30;99.90;;;;;;6204688;23;20193;-81
2021/09/20 06:57:24;;;;;;;9.37;7.20;;;13.30;99.90;;;;;;6203363;23;20192;-79
2021/09/20 06:59:50;;;;;;;9.67;7.00;;;13.30;99.90;;;;;;6203736;23;20167;-80
2021/09/20 07:23:01;;;;;;;11.43;7.20;;;13.70;99.90;;;;;;5915199;23;20179;-77
2021/09/20 07:25:28;;;;;;;8.23;7.10;;;13.70;99.90;;;;;;5994974;23;20182;-78
2021/09/20 07:27:55;;;;;;;8.13;6.90;;;13.70;99.90;;;;;;6135508;23;20194;-77
2021/09/20 07:30:22;;;;;;;9.07;7.00;;;13.80;99.90;;;;;;6172265;23;20167;-77
2021/09/20 07:32:51;;;;;;;8.50;7.07;;;13.80;99.90;;;;;;6172923;23;20202;-78
2021/09/20 07:35:19;;;;;;;8.83;6.90;;;13.90;99.90;;;;;;6174292;23;20179;-78
2021/09/20 07:37:55;;;;;;;9.27;7.27;;;13.90;99.90;;;;;;6174518;23;20175;-81
2021/09/20 07:40:26;;;;;;;8.27;6.80;;;14.00;99.90;;;;;;6175361;23;20170;-78
2021/09/20 07:42:54;;;;;;;10.77;7.23;;;14.00;99.90;;;;;;6175847;23;20170;-79
2021/09/20 07:45:21;;;;;;;9.00;7.63;;;14.10;99.90;;;;;;6174897;23;20186;-78
2021/09/20 07:47:48;;;;;;;8.50;7.47;;;14.10;99.90;;;;;;6176314;23;20182;-80
2021/09/20 07:50:16;;;;;;;8.33;7.03;;;14.20;99.90;;;;;;6175579;23;20183;-81
2021/09/20 07:52:44;;;;;;;8.90;6.80;;;14.20;99.90;;;;;;6175663;23;20171;-79
2021/09/20 07:55:12;;;;;;;6.57;5.87;;;14.30;99.90;;;;;;6177059;23;20175;-81
2021/09/20 07:57:40;;;;;;;9.33;6.73;;;14.30;99.90;;;;;;6175929;23;20213;-80
2021/09/20 08:00:09;;;;;;;9.53;6.53;;;14.40;99.90;;;;;;6174415;23;20167;-80
2021/09/20 08:02:36;;;;;;;9.73;7.70;;;14.50;99.90;;;;;;6177081;23;20174;-80
2021/09/20 08:05:04;;;;;;;10.20;7.20;;;14.60;99.90;;;;;;6177158;23;20568;-82
2021/09/20 08:07:31;;;;;;;6.33;5.53;;;14.60;99.90;;;;;;6176273;23;20650;-81
2021/09/20 08:09:58;;;;;;;7.30;6.00;;;14.70;99.90;;;;;;6176739;23;20627;-82
2021/09/20 08:12:25;;;;;;;6.47;5.57;;;14.80;99.90;;;;;;6206110;23;20854;-81
2021/09/20 08:14:53;;;;;;;6.70;5.97;;;14.80;99.90;;;;;;6205294;23;20197;-80
2021/09/20 08:17:20;;;;;;;7.80;5.43;;;14.90;99.90;;;;;;6204236;23;20179;-79
2021/09/20 08:19:46;;;;;;;6.93;5.43;;;15.00;99.90;;;;;;6205583;23;20202;-79
2021/09/20 08:22:13;;;;;;;9.27;5.43;;;15.10;99.90;;;;;;6205810;23;20189;-80
2021/09/20 08:24:40;;;;;;;6.13;5.33;;;15.10;99.90;;;;;;6206498;23;20171;-80
2021/09/20 08:27:07;;;;;;;6.40;5.13;;;15.20;99.90;;;;;;6206105;23;20845;-80
2021/09/20 08:29:34;;;;;;;7.23;5.60;;;15.30;99.90;;;;;;6207024;23;20178;-80
2021/09/20 08:32:02;;;;;;;6.43;4.90;;;15.40;99.90;;;;;;6206318;23;20193;-80
2021/09/20 08:34:29;;;;;;;5.37;4.77;;;15.50;99.90;;;;;;6205392;23;20194;-80
2021/09/20 08:36:55;;;;;;;6.87;4.57;;;15.60;99.90;;;;;;6206415;23;20174;-80
2021/09/20 08:39:22;;;;;;;5.53;4.93;;;15.80;99.90;;;;;;6206389;23;20181;-80
2021/09/20 08:41:49;;;;;;;6.70;4.83;;;16.00;99.90;;;;;;6205494;23;20166;-80
2021/09/20 08:44:18;;;;;;;5.13;4.63;;;16.10;99.90;;;;;;6206331;23;20174;-80
2021/09/20 08:46:46;;;;;;;6.53;5.30;;;16.10;99.90;;;;;;6204257;23;20174;-79
2021/09/20 08:49:15;;;;;;;7.97;5.10;;;16.30;99.90;;;;;;6204002;23;20177;-78
2021/09/20 08:51:42;;;;;;;5.07;4.50;;;16.50;99.90;;;;;;6204951;23;20260;-79
2021/09/20 08:54:09;;;;;;;5.43;3.97;;;16.60;99.90;;;;;;6204673;23;20190;-79
2021/09/20 08:56:36;;;;;;;5.18;3.92;;;16.70;99.90;;;;;;6201120;23;20258;-79
2021/09/20 08:59:03;;;;;;;4.47;4.07;;;16.80;99.90;;;;;;6204607;23;20205;-82
2021/09/20 09:01:32;;;;;;;6.57;4.15;;;16.80;99.90;;;;;;6204008;23;20178;-83
2021/09/20 09:04:29;;;;;;;4.30;3.67;;;16.90;99.90;;;;;;6203434;23;20228;-82
2021/09/20 09:06:58;;;;;;;5.45;4.20;;;17.00;99.90;;;;;;6203996;23;20860;-81
2021/09/20 09:09:33;;;;;;;4.35;3.75;;;17.10;99.90;;;;;;6203560;23;20185;-83
2021/09/20 09:12:19;;;;;;;4.60;4.00;;;17.10;99.90;;;;;;6205046;23;20212;-81
2021/09/20 09:14:48;;;;;;;4.88;3.97;;;17.20;99.90;;;;;;6204138;23;20442;-83
2021/09/20 09:17:19;;;;;;;3.90;3.47;;;17.20;99.90;;;;;;6202764;23;20197;-81
2021/09/20 09:19:52;;;;;;;4.50;4.03;;;17.20;99.90;;;;;;6203841;23;20197;-83
2021/09/20 09:22:20;;;;;;;5.97;3.78;;;17.30;99.90;;;;;;6204149;23;20555;-81
2021/09/20 09:24:58;;;;;;;4.82;3.92;;;17.40;99.90;;;;;;6203868;23;20258;-82
2021/09/20 09:27:26;;;;;;;4.65;4.10;;;17.40;99.90;;;;;;6202430;23;20181;-81
2021/09/20 09:30:01;;;;;;;5.43;4.05;;;17.50;99.90;;;;;;6204584;23;20178;-81
2021/09/20 09:32:28;;;;;;;6.00;4.20;;;17.60;99.90;;;;;;6203226;23;20169;-81
2021/09/20 09:34:58;;;;;;;4.15;3.75;;;17.70;99.90;;;;;;6203404;23;20297;-83
2021/09/20 09:37:26;;;;;;;4.15;3.75;;;17.90;99.90;;;;;;6203143;23;20174;-79
2021/09/20 09:40:13;;;;;;;5.72;4.05;;;17.80;99.90;;;;;;6205416;23;20181;-82
2021/09/20 09:42:41;;;;;;;4.28;3.88;;;17.90;99.90;;;;;;6204805;23;20766;-82
2021/09/20 09:45:18;;;;;;;5.47;3.95;;;17.90;99.90;;;;;;6204465;23;20174;-79
2021/09/20 09:47:45;;;;;;;4.57;4.00;;;18.00;99.90;;;;;;6204572;23;20174;-83
2021/09/20 09:50:15;;;;;;;5.20;4.05;;;18.00;99.90;;;;;;6204769;23;20174;-81
2021/09/20 09:52:43;;;;;;;4.47;3.95;;;18.20;99.90;;;;;;6201594;23;20169;-80
2021/09/20 09:55:10;;;;;;;4.18;3.53;;;18.40;99.90;;;;;;6203859;23;20204;-79
2021/09/20 09:57:38;;;;;;;3.90;3.55;;;18.50;99.90;;;;;;6203991;23;20178;-79
2021/09/20 10:00:07;;;;;;;4.40;3.70;;;18.70;99.90;;;;;;6203233;23;20181;-82
2021/09/20 10:02:36;;;;;;;4.43;4.03;;;18.90;99.90;;;;;;6204485;23;20181;-82
2021/09/20 10:05:06;;;;;;;4.30;3.90;;;18.90;99.90;;;;;;6206657;23;20173;-78
2021/09/20 10:07:37;;;;;;;6.00;4.00;;;18.90;99.90;;;;;;6204460;23;20166;-79
2021/09/20 10:10:06;;;;;;;4.85;3.60;;;19.00;99.90;;;;;;6205227;23;20177;-81
2021/09/20 10:12:34;;;;;;;4.28;3.80;;;19.20;99.90;;;;;;6206294;23;20367;-83
2021/09/20 10:15:02;;;;;;;3.80;3.38;;;19.20;99.90;;;;;;6206436;23;20202;-82
2021/09/20 10:17:30;;;;;;;4.40;3.95;;;19.30;99.90;;;;;;6205249;23;20181;-81
2021/09/20 10:19:59;;;;;;;4.32;3.88;;;19.50;99.90;;;;;;6205176;23;20205;-81
2021/09/20 10:22:26;;;;;;;6.07;3.97;;;19.50;99.90;;;;;;6203979;23;20246;-81
2021/09/20 10:24:59;;;;;;;4.07;3.67;;;19.50;99.90;;;;;;6202988;23;20181;-80
2021/09/20 10:27:27;;;;;;;5.30;4.80;;;19.70;99.90;;;;;;6202541;23;20555;-80
2021/09/20 10:29:58;;;;;;;4.95;4.45;;;19.70;99.90;;;;;;6203682;23;20193;-80
2021/09/20 10:32:27;;;;;;;6.32;4.28;;;19.90;99.90;;;;;;6203512;23;20234;-82
2021/09/20 10:35:37;;;;;;;4.90;4.40;;;19.90;99.90;;;;;;6204162;23;20776;-80
2021/09/20 10:38:21;;;;;;;8.48;5.25;;;20.10;99.90;;;;;;6173756;23;20521;-83
2021/09/20 10:41:06;;;;;;;5.45;4.53;;;20.00;99.90;;;;;;6206525;23;20177;-83
2021/09/20 10:43:34;;;;;;;4.38;3.97;;;20.10;99.90;;;;;;6207362;23;20169;-81
2021/09/20 10:48:53;;;;;;;7.25;5.22;;;20.00;99.90;;;;;;6213256;22;20638;-80
2021/09/20 10:51:29;;;;;;;5.88;4.97;;;19.90;99.90;;;;;;6204486;23;20170;-82
2021/09/20 10:54:17;;;;;;;6.18;4.68;;;19.90;99.90;;;;;;6203855;23;20493;-82
2021/09/20 10:56:48;;;;;;;8.48;5.18;;;20.10;99.90;;;;;;6203373;23;20240;-83
2021/09/20 10:59:25;;;;;;;5.97;5.47;;;19.90;99.90;;;;;;6203675;23;20579;-80
2021/09/20 11:02:00;;;;;;;5.93;5.32;;;19.70;99.90;;;;;;6204253;23;20606;-81
2021/09/20 11:04:32;;;;;;;6.25;5.65;;;19.50;99.90;;;;;;6203283;23;20172;-80
2021/09/20 11:07:22;;;;;;;7.03;6.10;;;19.40;99.90;;;;;;6204569;23;20170;-84
2021/09/20 11:10:01;;;;;;;7.00;5.68;;;19.20;99.90;;;;;;6205338;23;20417;-80
2021/09/20 11:12:30;;;;;;;6.05;5.45;;;19.00;99.90;;;;;;6202920;23;20170;-82
2021/09/20 11:15:06;;;;;;;6.10;5.50;;;19.00;99.90;;;;;;6202417;23;20197;-80
2021/09/20 11:17:41;;;;;;;5.45;4.95;;;19.20;99.90;;;;;;6203463;23;20177;-81
2021/09/20 11:20:27;;;;;;;5.25;4.75;;;19.40;99.90;;;;;;6202774;23;20199;-81
2021/09/20 11:23:28;;;;;;;6.00;5.13;;;19.80;99.90;;;;;;6203754;23;20181;-81
2021/09/20 11:26:23;;;;;;;5.68;5.03;;;20.20;99.90;;;;;;6205375;23;20858;-82
2021/09/20 11:28:55;;;;;;;6.20;5.60;;;20.40;99.90;;;;;;6136410;23;20170;-82
2021/09/20 11:31:28;;;;;;;6.68;5.47;;;20.40;99.90;;;;;;6205675;23;20431;-83
2021/09/20 11:33:56;;;;;;;5.72;5.22;;;20.40;99.90;;;;;;6205568;23;20166;-81
2021/09/20 11:36:26;;;;;;;5.95;5.35;;;20.50;99.90;;;;;;6203866;23;20181;-83
2021/09/20 11:39:15;;;;;;;4.82;4.32;;;20.80;99.90;;;;;;6203292;23;20178;-83
2021/09/20 11:41:44;;;;;;;6.60;4.72;;;20.80;99.90;;;;;;6204452;23;20167;-84
2021/09/20 11:44:14;;;;;;;5.07;4.32;;;20.90;99.90;;;;;;6204560;23;20170;-83
2021/09/20 11:46:40;;;;;;;5.10;4.60;;;21.10;99.90;;;;;;6205081;23;20532;-83
2021/09/20 11:49:10;;;;;;;6.15;5.55;;;21.20;99.90;;;;;;6205202;23;20465;-82
2021/09/20 11:51:37;;;;;;;8.02;4.97;;;21.20;99.90;;;;;;6202991;23;20169;-81
2021/09/20 11:54:04;;;;;;;7.20;5.10;;;21.30;99.90;;;;;;6205891;23;20181;-83
2021/09/20 11:56:31;;;;;;;5.95;4.90;;;21.10;99.90;;;;;;6204911;23;20174;-82
2021/09/20 11:59:00;;;;;;;5.80;4.93;;;20.60;99.90;;;;;;6204583;23;20185;-81
2021/09/20 12:01:29;;;;;;;5.75;5.15;;;20.00;99.90;;;;;;6205324;23;20174;-82
2021/09/20 12:03:57;;;;;;;5.53;5.05;;;19.70;99.90;;;;;;6205688;23;20170;-83
2021/09/20 12:06:30;;;;;;;5.25;4.78;;;19.70;99.90;;;;;;6203987;23;20540;-81
2021/09/20 12:08:59;;;;;;;5.40;4.65;;;19.70;99.90;;;;;;6205170;23;20178;-82
2021/09/20 12:11:27;;;;;;;4.88;4.38;;;19.50;99.90;;;;;;6205245;23;20240;-83
2021/09/20 12:13:54;;;;;;;6.60;4.65;;;19.40;99.90;;;;;;6204982;23;20651;-83
2021/09/20 12:16:21;;;;;;;3.90;3.60;;;19.30;99.90;;;;;;6205024;23;20170;-82
2021/09/20 12:18:49;;;;;;;4.13;3.72;;;19.40;99.90;;;;;;6204882;23;20173;-82
2021/09/20 12:21:19;;;;;;;4.82;4.30;;;19.20;99.90;;;;;;6204496;23;20197;-80
2021/09/20 12:23:49;;;;;;;6.47;3.67;;;19.40;99.90;;;;;;6205628;23;20170;-83
2021/09/20 12:26:18;;;;;;;5.50;3.53;;;19.60;99.90;;;;;;6204809;23;20174;-83
2021/09/20 12:28:52;;;;;;;3.83;3.53;;;19.80;99.90;;;;;;6205456;23;20173;-83
2021/09/20 12:31:20;;;;;;;3.50;3.20;;;19.90;99.90;;;;;;6204914;23;20237;-81
2021/09/20 12:33:54;;;;;;;4.00;3.53;;;19.90;99.90;;;;;;6206246;23;20225;-83
2021/09/20 12:36:25;;;;;;;4.75;3.50;;;20.00;99.90;;;;;;6205033;23;20193;-81
2021/09/20 12:39:05;;;;;;;4.13;3.30;;;20.10;99.90;;;;;;6204814;23;20525;-82
2021/09/20 12:41:36;;;;;;;3.72;3.42;;;20.30;99.90;;;;;;6204191;23;20188;-80
2021/09/20 12:44:04;;;;;;;4.38;3.97;;;20.50;99.90;;;;;;6205183;23;20564;-80
2021/09/20 12:46:32;;;;;;;3.45;3.20;;;20.50;99.90;;;;;;6204129;23;20206;-82
2021/09/20 12:49:01;;;;;;;8.05;3.65;;;20.60;99.90;;;;;;6204904;23;20252;-80
2021/09/20 12:51:35;;;;;;;3.85;3.30;;;20.50;99.90;;;;;;6203759;23;20753;-83
2021/09/20 12:54:01;;;;;;;3.17;2.42;;;20.40;99.90;;;;;;6204746;23;20259;-81
2021/09/20 12:56:32;;;;;;;3.17;2.50;;;20.40;99.90;;;;;;6204698;23;20205;-82
2021/09/20 12:59:13;;;;;;;3.17;2.63;;;20.30;99.90;;;;;;6203873;23;20162;-81
2021/09/20 13:01:46;;;;;;;3.40;3.05;;;20.40;99.90;;;;;;6204429;23;20706;-82
2021/09/20 13:04:30;;;;;;;3.70;2.90;;;20.40;99.90;;;;;;6205092;23;20228;-81
2021/09/20 13:07:03;;;;;;;4.63;3.05;;;20.50;99.90;;;;;;6204764;23;20177;-81
2021/09/20 13:09:31;;;;;;;3.60;2.85;;;20.50;99.90;;;;;;6204472;23;20178;-82
2021/09/20 13:12:06;;;;;;;3.00;2.75;;;20.40;99.90;;;;;;6204219;23;20188;-81
2021/09/20 13:14:33;;;;;;;3.88;3.38;;;20.30;99.90;;;;;;6204962;23;20165;-81
2021/09/20 13:17:07;;;;;;;6.10;2.85;;;20.20;99.90;;;;;;6204098;23;20174;-84